Aviation Digital Data Service (ADDS)

Output produced by METARs form (0808 UTC 18 February 2019)
found at http://www.aviationweather.gov/metar/data/
 
Forecast for: LETO (TORREJON (USAFB), ES)
Text: TAF LETO 180500Z 1806/1906 VRB05KT CAVOK TX16/1816Z TN00/1806Z
Forecast period: 0600 to 1700 UTC 18 February 2019
Forecast type: FROM: standard forecast or significant change
Winds: variable direction winds at 6 MPH (5 knots; 2.6 m/s)
Visibility: 6 or more miles 10+ km)
Ceiling: unknown
Clouds: missing
Weather: no significant weather forecast for this period
Text: TEMPO 1806/1812 03007KT
Forecast period: 0600 to 1200 UTC 18 February 2019
Forecast type: TEMPORARY: The following changes expected for less than half the time period
Winds: from the NNE (30 degrees) at 8 MPH (7 knots; 3.6 m/s)
Visibility: missing
Ceiling: unknown
Clouds: missing
Weather: no significant weather forecast for this period
Text: BECMG 1817/1818 03006KT
Forecast period: 1700 UTC 18 February 2019 to 0600 UTC 19 February 2019
Forecast type: BECOMING: Conditions expected to become as follows by 1800 UTC 18 February 2019
Winds: from the NNE (30 degrees) at 7 MPH (6 knots; 3.1 m/s)
Visibility: 6 or more miles 10+ km)
Ceiling: unknown
Clouds: missing
Weather: no significant weather forecast for this period